createdAt,value
2022-10-23T00:08:42.598Z,1014
2022-10-23T00:24:24.708Z,1014
2022-10-23T00:40:07.315Z,1014
2022-10-23T00:55:50.151Z,1014
2022-10-23T01:11:32.550Z,1014
2022-10-23T01:27:15.282Z,1014
2022-10-23T01:42:57.374Z,1014
2022-10-23T01:58:39.920Z,1014
2022-10-23T02:14:22.433Z,1014
2022-10-23T02:30:05.139Z,1014
2022-10-23T02:45:47.348Z,1014
2022-10-23T03:01:29.594Z,1014
2022-10-23T03:17:12.473Z,1014
2022-10-23T03:32:54.541Z,1014
2022-10-23T03:48:36.714Z,1014
2022-10-23T04:04:19.713Z,1014
2022-10-23T04:20:02.267Z,1014
2022-10-23T04:35:44.640Z,1014
2022-10-23T04:51:27.199Z,1014
2022-10-23T05:07:09.887Z,1014
2022-10-23T05:22:52.227Z,1014
2022-10-23T05:38:34.371Z,1014
2022-10-23T05:54:17.108Z,1014
2022-10-23T06:09:59.719Z,1014
2022-10-23T06:25:42.763Z,1014
2022-10-23T06:41:25.737Z,1014
2022-10-23T06:57:08.371Z,1014
2022-10-23T07:12:51.295Z,1014
2022-10-23T07:28:34.006Z,1014
2022-10-23T07:44:16.666Z,1014
2022-10-23T07:59:58.667Z,1014
2022-10-23T08:15:40.937Z,1014
2022-10-23T08:31:23.880Z,1014
2022-10-23T08:47:06.078Z,1014
2022-10-23T09:02:48.702Z,1014
2022-10-23T09:18:30.819Z,1014
2022-10-23T09:34:13.741Z,1014
2022-10-23T09:49:55.672Z,1014
2022-10-23T10:05:37.859Z,1014
2022-10-23T10:21:20.157Z,1013
2022-10-23T10:37:02.088Z,1013
2022-10-23T10:52:44.124Z,1013
2022-10-23T11:08:26.868Z,1013
2022-10-23T11:24:08.950Z,1013
2022-10-23T11:39:51.398Z,1012
2022-10-23T11:55:33.607Z,1012
2022-10-23T12:11:15.595Z,1012
2022-10-23T12:26:57.939Z,1012
2022-10-23T12:42:40.698Z,1012
2022-10-23T12:58:23.569Z,1011
2022-10-23T13:14:06.313Z,1011
2022-10-23T13:14:53.537Z,1011
2022-10-23T13:30:36.254Z,1011
2022-10-23T13:46:19.202Z,1011
2022-10-23T14:02:02.100Z,1011
2022-10-23T14:17:44.542Z,1011
2022-10-23T14:33:27.302Z,1011
2022-10-23T14:49:09.427Z,1011
2022-10-23T15:04:51.588Z,1010
2022-10-23T15:20:34.252Z,1010
2022-10-23T15:36:17.213Z,1010
2022-10-23T15:51:59.431Z,1010
2022-10-23T16:07:42.175Z,1010
2022-10-23T16:23:24.272Z,1010
2022-10-23T16:39:06.960Z,1010
2022-10-23T16:54:49.537Z,1009
2022-10-23T17:10:31.873Z,1009
2022-10-23T17:26:13.913Z,1009
2022-10-23T17:41:56.455Z,1009
2022-10-23T17:57:39.454Z,1009
2022-10-23T18:13:22.388Z,1009
2022-10-23T18:29:04.811Z,1008
2022-10-23T18:44:47.644Z,1008
2022-10-23T19:00:30.309Z,1008
2022-10-23T19:16:13.183Z,1008
2022-10-23T19:31:55.649Z,1008
2022-10-23T19:47:38.132Z,1008
2022-10-23T20:03:20.237Z,1008
2022-10-23T20:19:03.006Z,1008
2022-10-23T20:34:45.432Z,1008
2022-10-23T20:50:28.390Z,1008
2022-10-23T21:06:11.261Z,1008
2022-10-23T21:21:54.092Z,1007
2022-10-23T21:37:36.557Z,1008
2022-10-23T21:53:18.724Z,1008
2022-10-23T22:09:01.533Z,1008
2022-10-23T22:24:44.498Z,1008
2022-10-23T22:40:26.842Z,1008
2022-10-23T22:56:08.998Z,1008
2022-10-23T23:11:51.350Z,1008
2022-10-23T23:27:33.948Z,1008
2022-10-23T23:43:16.602Z,1007
2022-10-23T23:58:59.464Z,1007
